sensor_id;sensor_type;location;lat;lon;timestamp;temperature;humidity
72128;DHT22;60000;51.030;7.024;2023-06-24T00:00:33;18.07;77.49
72128;DHT22;60000;51.030;7.024;2023-06-24T00:02:58;18.00;77.59
72128;DHT22;60000;51.030;7.024;2023-06-24T00:05:27;18.01;77.66
72128;DHT22;60000;51.030;7.024;2023-06-24T00:07:53;17.96;77.58
72128;DHT22;60000;51.030;7.024;2023-06-24T00:10:22;17.96;77.35
72128;DHT22;60000;51.030;7.024;2023-06-24T00:12:47;17.93;77.22
72128;DHT22;60000;51.030;7.024;2023-06-24T00:15:13;17.91;77.11
72128;DHT22;60000;51.030;7.024;2023-06-24T00:17:39;17.90;77.30
72128;DHT22;60000;51.030;7.024;2023-06-24T00:20:04;17.87;77.03
72128;DHT22;60000;51.030;7.024;2023-06-24T00:22:32;17.85;77.09
72128;DHT22;60000;51.030;7.024;2023-06-24T00:24:57;17.85;77.24
72128;DHT22;60000;51.030;7.024;2023-06-24T00:27:24;17.80;77.22
72128;DHT22;60000;51.030;7.024;2023-06-24T00:29:49;17.79;77.25
72128;DHT22;60000;51.030;7.024;2023-06-24T00:32:14;17.76;77.16
72128;DHT22;60000;51.030;7.024;2023-06-24T00:34:39;17.73;77.31
72128;DHT22;60000;51.030;7.024;2023-06-24T00:37:09;17.72;77.31
72128;DHT22;60000;51.030;7.024;2023-06-24T00:39:34;17.69;77.24
72128;DHT22;60000;51.030;7.024;2023-06-24T00:41:59;17.68;77.49
72128;DHT22;60000;51.030;7.024;2023-06-24T00:44:25;17.65;77.37
72128;DHT22;60000;51.030;7.024;2023-06-24T00:46:50;17.62;77.27
72128;DHT22;60000;51.030;7.024;2023-06-24T00:49:16;17.56;77.13
72128;DHT22;60000;51.030;7.024;2023-06-24T00:51:41;17.59;77.39
72128;DHT22;60000;51.030;7.024;2023-06-24T00:54:12;17.55;77.28
72128;DHT22;60000;51.030;7.024;2023-06-24T00:56:37;17.56;77.43
72128;DHT22;60000;51.030;7.024;2023-06-24T00:59:07;17.53;77.70
72128;DHT22;60000;51.030;7.024;2023-06-24T01:01:34;17.52;77.87
72128;DHT22;60000;51.030;7.024;2023-06-24T01:04:01;17.48;77.99
72128;DHT22;60000;51.030;7.024;2023-06-24T01:06:28;17.49;78.00
72128;DHT22;60000;51.030;7.024;2023-06-24T01:08:54;17.46;78.26
72128;DHT22;60000;51.030;7.024;2023-06-24T01:11:22;17.43;78.28
72128;DHT22;60000;51.030;7.024;2023-06-24T01:13:47;17.42;78.08
72128;DHT22;60000;51.030;7.024;2023-06-24T01:16:24;17.38;77.98
72128;DHT22;60000;51.030;7.024;2023-06-24T01:18:56;17.34;77.83
72128;DHT22;60000;51.030;7.024;2023-06-24T01:32:29;17.29;78.07
72128;DHT22;60000;51.030;7.024;2023-06-24T01:35:07;17.22;78.07
72128;DHT22;60000;51.030;7.024;2023-06-24T01:37:42;17.22;78.30
72128;DHT22;60000;51.030;7.024;2023-06-24T01:40:27;17.18;78.07
72128;DHT22;60000;51.030;7.024;2023-06-24T01:42:59;17.18;78.01
72128;DHT22;60000;51.030;7.024;2023-06-24T01:45:32;17.15;77.96
72128;DHT22;60000;51.030;7.024;2023-06-24T01:48:11;17.15;78.20
72128;DHT22;60000;51.030;7.024;2023-06-24T01:50:39;17.11;78.06
72128;DHT22;60000;51.030;7.024;2023-06-24T01:53:08;17.12;78.11
72128;DHT22;60000;51.030;7.024;2023-06-24T01:55:35;17.10;77.98
72128;DHT22;60000;51.030;7.024;2023-06-24T01:58:05;17.08;78.22
72128;DHT22;60000;51.030;7.024;2023-06-24T02:00:32;17.04;78.05
72128;DHT22;60000;51.030;7.024;2023-06-24T02:02:59;17.01;78.23
72128;DHT22;60000;51.030;7.024;2023-06-24T02:05:25;17.03;78.29
72128;DHT22;60000;51.030;7.024;2023-06-24T02:07:52;17.00;78.34
72128;DHT22;60000;51.030;7.024;2023-06-24T02:10:18;16.95;78.10
72128;DHT22;60000;51.030;7.024;2023-06-24T02:12:46;16.95;78.28
72128;DHT22;60000;51.030;7.024;2023-06-24T02:15:13;16.97;78.57
72128;DHT22;60000;51.030;7.024;2023-06-24T02:17:39;16.91;78.41
72128;DHT22;60000;51.030;7.024;2023-06-24T02:20:06;16.90;78.43
72128;DHT22;60000;51.030;7.024;2023-06-24T02:22:37;16.85;78.25
72128;DHT22;60000;51.030;7.024;2023-06-24T02:25:05;16.84;78.66
72128;DHT22;60000;51.030;7.024;2023-06-24T02:27:30;16.83;78.86
72128;DHT22;60000;51.030;7.024;2023-06-24T02:29:57;16.81;78.76
72128;DHT22;60000;51.030;7.024;2023-06-24T02:32:23;16.79;78.93
72128;DHT22;60000;51.030;7.024;2023-06-24T02:34:48;16.74;79.11
72128;DHT22;60000;51.030;7.024;2023-06-24T02:37:13;16.70;79.01
72128;DHT22;60000;51.030;7.024;2023-06-24T02:39:39;16.67;79.20
72128;DHT22;60000;51.030;7.024;2023-06-24T02:42:09;16.63;79.23
72128;DHT22;60000;51.030;7.024;2023-06-24T02:44:35;16.59;79.35
72128;DHT22;60000;51.030;7.024;2023-06-24T02:47:00;16.52;79.76
72128;DHT22;60000;51.030;7.024;2023-06-24T02:49:27;16.48;80.16
72128;DHT22;60000;51.030;7.024;2023-06-24T02:51:52;16.45;80.24
72128;DHT22;60000;51.030;7.024;2023-06-24T02:54:18;16.38;80.27
72128;DHT22;60000;51.030;7.024;2023-06-24T02:56:43;16.36;80.60
72128;DHT22;60000;51.030;7.024;2023-06-24T02:59:09;16.38;80.81
72128;DHT22;60000;51.030;7.024;2023-06-24T03:01:36;16.30;80.58
72128;DHT22;60000;51.030;7.024;2023-06-24T03:04:05;16.26;81.07
72128;DHT22;60000;51.030;7.024;2023-06-24T03:06:31;16.23;81.28
72128;DHT22;60000;51.030;7.024;2023-06-24T03:08:57;16.18;81.34
72128;DHT22;60000;51.030;7.024;2023-06-24T03:11:23;16.12;81.51
72128;DHT22;60000;51.030;7.024;2023-06-24T03:13:49;16.08;81.90
72128;DHT22;60000;51.030;7.024;2023-06-24T03:16:14;16.05;82.18
72128;DHT22;60000;51.030;7.024;2023-06-24T03:18:43;16.02;81.98
72128;DHT22;60000;51.030;7.024;2023-06-24T03:21:09;15.99;82.31
72128;DHT22;60000;51.030;7.024;2023-06-24T03:23:35;15.94;82.30
72128;DHT22;60000;51.030;7.024;2023-06-24T03:26:00;15.90;82.22
72128;DHT22;60000;51.030;7.024;2023-06-24T03:28:28;15.85;82.58
72128;DHT22;60000;51.030;7.024;2023-06-24T03:30:53;15.84;82.46
72128;DHT22;60000;51.030;7.024;2023-06-24T03:33:18;15.80;82.38
72128;DHT22;60000;51.030;7.024;2023-06-24T03:35:44;15.78;82.57
72128;DHT22;60000;51.030;7.024;2023-06-24T03:38:09;15.75;82.56
72128;DHT22;60000;51.030;7.024;2023-06-24T03:40:34;15.75;82.53
72128;DHT22;60000;51.030;7.024;2023-06-24T03:43:00;15.75;82.62
72128;DHT22;60000;51.030;7.024;2023-06-24T03:45:25;15.72;82.69
72128;DHT22;60000;51.030;7.024;2023-06-24T03:47:50;15.74;82.80
72128;DHT22;60000;51.030;7.024;2023-06-24T03:50:16;15.78;82.95
72128;DHT22;60000;51.030;7.024;2023-06-24T03:52:41;15.78;82.85
72128;DHT22;60000;51.030;7.024;2023-06-24T03:55:06;15.78;82.85
72128;DHT22;60000;51.030;7.024;2023-06-24T03:57:32;15.80;82.91
72128;DHT22;60000;51.030;7.024;2023-06-24T03:59:57;15.80;82.74
72128;DHT22;60000;51.030;7.024;2023-06-24T04:02:23;15.84;82.62
72128;DHT22;60000;51.030;7.024;2023-06-24T04:04:48;15.82;82.62
72128;DHT22;60000;51.030;7.024;2023-06-24T04:07:16;15.82;82.65
72128;DHT22;60000;51.030;7.024;2023-06-24T04:09:51;15.87;82.72
72128;DHT22;60000;51.030;7.024;2023-06-24T04:12:17;15.81;82.88
72128;DHT22;60000;51.030;7.024;2023-06-24T04:14:42;15.84;83.01
72128;DHT22;60000;51.030;7.024;2023-06-24T04:17:07;15.87;83.11
72128;DHT22;60000;51.030;7.024;2023-06-24T04:19:33;15.91;83.25
72128;DHT22;60000;51.030;7.024;2023-06-24T04:21:59;15.92;83.36
72128;DHT22;60000;51.030;7.024;2023-06-24T04:24:24;15.97;83.17
72128;DHT22;60000;51.030;7.024;2023-06-24T04:26:49;15.97;83.13
72128;DHT22;60000;51.030;7.024;2023-06-24T04:29:15;16.01;83.53
72128;DHT22;60000;51.030;7.024;2023-06-24T04:31:40;16.06;83.50
72128;DHT22;60000;51.030;7.024;2023-06-24T04:34:05;16.06;83.70
72128;DHT22;60000;51.030;7.024;2023-06-24T04:36:31;16.09;83.54
72128;DHT22;60000;51.030;7.024;2023-06-24T04:38:56;16.09;83.70
72128;DHT22;60000;51.030;7.024;2023-06-24T04:41:21;16.13;83.94
72128;DHT22;60000;51.030;7.024;2023-06-24T04:43:47;16.15;84.05
72128;DHT22;60000;51.030;7.024;2023-06-24T04:46:12;16.19;83.92
72128;DHT22;60000;51.030;7.024;2023-06-24T04:48:37;16.23;83.90
72128;DHT22;60000;51.030;7.024;2023-06-24T04:51:03;16.25;83.74
72128;DHT22;60000;51.030;7.024;2023-06-24T04:53:28;16.30;84.00
72128;DHT22;60000;51.030;7.024;2023-06-24T04:55:54;16.34;83.71
72128;DHT22;60000;51.030;7.024;2023-06-24T04:58:19;16.40;83.65
72128;DHT22;60000;51.030;7.024;2023-06-24T05:00:45;16.46;83.26
72128;DHT22;60000;51.030;7.024;2023-06-24T05:03:10;16.50;83.02
72128;DHT22;60000;51.030;7.024;2023-06-24T05:05:35;16.57;82.67
72128;DHT22;60000;51.030;7.024;2023-06-24T05:08:01;16.60;82.36
72128;DHT22;60000;51.030;7.024;2023-06-24T05:10:26;16.67;82.38
72128;DHT22;60000;51.030;7.024;2023-06-24T05:12:51;16.70;82.02
72128;DHT22;60000;51.030;7.024;2023-06-24T05:15:17;16.80;81.90
72128;DHT22;60000;51.030;7.024;2023-06-24T05:17:42;16.81;81.73
72128;DHT22;60000;51.030;7.024;2023-06-24T05:20:08;16.90;81.64
72128;DHT22;60000;51.030;7.024;2023-06-24T05:22:34;16.97;81.45
72128;DHT22;60000;51.030;7.024;2023-06-24T05:25:00;17.03;81.15
72128;DHT22;60000;51.030;7.024;2023-06-24T05:27:25;17.07;80.87
72128;DHT22;60000;51.030;7.024;2023-06-24T05:29:50;17.14;80.51
72128;DHT22;60000;51.030;7.024;2023-06-24T05:32:16;17.19;80.40
72128;DHT22;60000;51.030;7.024;2023-06-24T05:34:43;17.25;80.01
72128;DHT22;60000;51.030;7.024;2023-06-24T05:37:08;17.28;79.92
72128;DHT22;60000;51.030;7.024;2023-06-24T05:39:33;17.36;79.81
72128;DHT22;60000;51.030;7.024;2023-06-24T05:41:59;17.45;79.53
72128;DHT22;60000;51.030;7.024;2023-06-24T05:44:24;17.53;79.62
72128;DHT22;60000;51.030;7.024;2023-06-24T05:46:50;17.61;79.59
72128;DHT22;60000;51.030;7.024;2023-06-24T05:49:15;17.68;78.86
72128;DHT22;60000;51.030;7.024;2023-06-24T05:51:40;17.77;78.97
72128;DHT22;60000;51.030;7.024;2023-06-24T05:54:06;17.90;79.18
72128;DHT22;60000;51.030;7.024;2023-06-24T05:56:33;18.11;79.46
72128;DHT22;60000;51.030;7.024;2023-06-24T05:58:58;18.37;78.71
72128;DHT22;60000;51.030;7.024;2023-06-24T06:01:24;18.65;78.10
72128;DHT22;60000;51.030;7.024;2023-06-24T06:03:49;18.99;77.57
72128;DHT22;60000;51.030;7.024;2023-06-24T06:06:14;19.28;76.77
72128;DHT22;60000;51.030;7.024;2023-06-24T06:08:40;19.63;75.26
72128;DHT22;60000;51.030;7.024;2023-06-24T06:11:06;19.84;73.44
72128;DHT22;60000;51.030;7.024;2023-06-24T06:13:31;19.99;72.28
72128;DHT22;60000;51.030;7.024;2023-06-24T06:15:57;20.36;73.11
72128;DHT22;60000;51.030;7.024;2023-06-24T06:18:22;20.47;70.40
72128;DHT22;60000;51.030;7.024;2023-06-24T06:20:48;20.73;69.66
72128;DHT22;60000;51.030;7.024;2023-06-24T06:23:15;20.97;70.22
72128;DHT22;60000;51.030;7.024;2023-06-24T06:25:40;21.22;68.89
72128;DHT22;60000;51.030;7.024;2023-06-24T06:28:06;21.63;68.81
72128;DHT22;60000;51.030;7.024;2023-06-24T06:30:31;22.09;67.67
72128;DHT22;60000;51.030;7.024;2023-06-24T06:32:56;22.40;66.55
72128;DHT22;60000;51.030;7.024;2023-06-24T06:35:22;22.84;65.88
72128;DHT22;60000;51.030;7.024;2023-06-24T06:37:47;23.09;63.80
72128;DHT22;60000;51.030;7.024;2023-06-24T06:40:21;23.47;63.28
72128;DHT22;60000;51.030;7.024;2023-06-24T06:42:47;23.74;62.28
72128;DHT22;60000;51.030;7.024;2023-06-24T06:45:12;24.15;61.70
72128;DHT22;60000;51.030;7.024;2023-06-24T06:47:38;24.49;60.70
72128;DHT22;60000;51.030;7.024;2023-06-24T06:50:03;24.51;58.59
72128;DHT22;60000;51.030;7.024;2023-06-24T06:52:29;24.49;58.79
72128;DHT22;60000;51.030;7.024;2023-06-24T06:54:55;24.56;58.48
72128;DHT22;60000;51.030;7.024;2023-06-24T06:57:20;24.77;59.31
72128;DHT22;60000;51.030;7.024;2023-06-24T06:59:45;24.86;57.56
72128;DHT22;60000;51.030;7.024;2023-06-24T07:02:11;25.07;57.79
72128;DHT22;60000;51.030;7.024;2023-06-24T07:04:36;25.04;56.08
72128;DHT22;60000;51.030;7.024;2023-06-24T07:07:02;25.61;57.62
72128;DHT22;60000;51.030;7.024;2023-06-24T07:09:27;25.76;56.14
72128;DHT22;60000;51.030;7.024;2023-06-24T07:11:53;25.90;54.50
72128;DHT22;60000;51.030;7.024;2023-06-24T07:14:18;25.68;54.19
72128;DHT22;60000;51.030;7.024;2023-06-24T07:16:44;25.81;56.09
72128;DHT22;60000;51.030;7.024;2023-06-24T07:19:09;26.14;55.44
72128;DHT22;60000;51.030;7.024;2023-06-24T07:21:34;26.54;54.96
72128;DHT22;60000;51.030;7.024;2023-06-24T07:24:00;26.72;53.92
72128;DHT22;60000;51.030;7.024;2023-06-24T07:26:25;26.55;52.22
72128;DHT22;60000;51.030;7.024;2023-06-24T07:28:55;26.70;54.17
72128;DHT22;60000;51.030;7.024;2023-06-24T07:31:21;26.85;52.79
72128;DHT22;60000;51.030;7.024;2023-06-24T07:33:46;26.91;51.75
72128;DHT22;60000;51.030;7.024;2023-06-24T07:36:12;26.91;52.07
72128;DHT22;60000;51.030;7.024;2023-06-24T07:38:38;26.99;51.86
72128;DHT22;60000;51.030;7.024;2023-06-24T07:41:04;27.13;51.96
72128;DHT22;60000;51.030;7.024;2023-06-24T07:43:29;27.30;51.78
72128;DHT22;60000;51.030;7.024;2023-06-24T07:45:55;27.63;51.71
72128;DHT22;60000;51.030;7.024;2023-06-24T07:48:20;27.76;52.19
72128;DHT22;60000;51.030;7.024;2023-06-24T07:50:46;27.98;50.25
72128;DHT22;60000;51.030;7.024;2023-06-24T07:53:11;27.91;50.06
72128;DHT22;60000;51.030;7.024;2023-06-24T07:55:37;28.17;49.76
72128;DHT22;60000;51.030;7.024;2023-06-24T07:58:02;28.55;49.26
72128;DHT22;60000;51.030;7.024;2023-06-24T08:00:28;28.80;47.85
72128;DHT22;60000;51.030;7.024;2023-06-24T08:02:54;28.89;46.88
72128;DHT22;60000;51.030;7.024;2023-06-24T08:05:20;29.23;47.56
72128;DHT22;60000;51.030;7.024;2023-06-24T08:07:46;29.41;45.20
72128;DHT22;60000;51.030;7.024;2023-06-24T08:10:11;29.76;45.25
72128;DHT22;60000;51.030;7.024;2023-06-24T08:12:37;29.61;41.98
72128;DHT22;60000;51.030;7.024;2023-06-24T08:15:03;29.45;42.23
72128;DHT22;60000;51.030;7.024;2023-06-24T08:17:28;28.96;42.85
72128;DHT22;60000;51.030;7.024;2023-06-24T08:19:53;29.13;47.42
72128;DHT22;60000;51.030;7.024;2023-06-24T08:22:19;29.18;43.52
72128;DHT22;60000;51.030;7.024;2023-06-24T08:24:44;29.61;44.24
72128;DHT22;60000;51.030;7.024;2023-06-24T08:27:09;29.88;41.24
72128;DHT22;60000;51.030;7.024;2023-06-24T08:29:35;30.12;42.28
72128;DHT22;60000;51.030;7.024;2023-06-24T08:32:03;30.13;41.76
72128;DHT22;60000;51.030;7.024;2023-06-24T08:34:30;30.33;41.60
72128;DHT22;60000;51.030;7.024;2023-06-24T08:36:55;30.50;41.12
72128;DHT22;60000;51.030;7.024;2023-06-24T08:39:20;30.43;39.51
72128;DHT22;60000;51.030;7.024;2023-06-24T08:41:46;30.32;41.31
72128;DHT22;60000;51.030;7.024;2023-06-24T08:44:11;30.36;43.35
72128;DHT22;60000;51.030;7.024;2023-06-24T08:46:36;30.61;42.85
72128;DHT22;60000;51.030;7.024;2023-06-24T08:49:12;30.60;40.28
72128;DHT22;60000;51.030;7.024;2023-06-24T08:51:41;30.61;40.93
72128;DHT22;60000;51.030;7.024;2023-06-24T08:54:09;30.75;41.46
72128;DHT22;60000;51.030;7.024;2023-06-24T08:56:36;30.85;41.18
72128;DHT22;60000;51.030;7.024;2023-06-24T08:59:04;30.84;40.10
72128;DHT22;60000;51.030;7.024;2023-06-24T09:01:30;30.87;40.75
72128;DHT22;60000;51.030;7.024;2023-06-24T09:03:55;30.92;41.20
72128;DHT22;60000;51.030;7.024;2023-06-24T09:06:21;31.12;41.45
72128;DHT22;60000;51.030;7.024;2023-06-24T09:09:24;31.45;39.56
72128;DHT22;60000;51.030;7.024;2023-06-24T09:12:02;31.58;40.11
72128;DHT22;60000;51.030;7.024;2023-06-24T09:14:29;31.60;40.11
72128;DHT22;60000;51.030;7.024;2023-06-24T09:16:59;31.49;40.44
72128;DHT22;60000;51.030;7.024;2023-06-24T09:19:31;31.31;38.96
72128;DHT22;60000;51.030;7.024;2023-06-24T09:22:08;31.29;38.92
72128;DHT22;60000;51.030;7.024;2023-06-24T09:24:34;31.63;40.03
72128;DHT22;60000;51.030;7.024;2023-06-24T09:27:01;31.72;40.36
72128;DHT22;60000;51.030;7.024;2023-06-24T09:29:27;32.07;39.54
72128;DHT22;60000;51.030;7.024;2023-06-24T09:31:53;31.87;40.04
72128;DHT22;60000;51.030;7.024;2023-06-24T09:34:19;31.97;41.52
72128;DHT22;60000;51.030;7.024;2023-06-24T09:36:46;31.84;36.42
72128;DHT22;60000;51.030;7.024;2023-06-24T09:39:16;31.14;37.84
72128;DHT22;60000;51.030;7.024;2023-06-24T09:41:41;31.01;41.72
72128;DHT22;60000;51.030;7.024;2023-06-24T09:44:09;31.25;40.05
72128;DHT22;60000;51.030;7.024;2023-06-24T09:46:36;30.94;39.36
72128;DHT22;60000;51.030;7.024;2023-06-24T09:49:03;31.11;39.84
72128;DHT22;60000;51.030;7.024;2023-06-24T09:51:31;30.73;40.16
72128;DHT22;60000;51.030;7.024;2023-06-24T09:53:58;30.85;41.29
72128;DHT22;60000;51.030;7.024;2023-06-24T09:56:23;30.96;40.72
72128;DHT22;60000;51.030;7.024;2023-06-24T09:58:49;30.64;39.87
72128;DHT22;60000;51.030;7.024;2023-06-24T10:01:15;30.34;41.54
72128;DHT22;60000;51.030;7.024;2023-06-24T10:03:42;30.13;41.65
72128;DHT22;60000;51.030;7.024;2023-06-24T10:06:08;30.46;42.88
72128;DHT22;60000;51.030;7.024;2023-06-24T10:08:33;30.87;41.21
72128;DHT22;60000;51.030;7.024;2023-06-24T10:10:59;31.14;39.97
72128;DHT22;60000;51.030;7.024;2023-06-24T10:13:25;30.78;39.70
72128;DHT22;60000;51.030;7.024;2023-06-24T10:15:51;30.71;41.17
72128;DHT22;60000;51.030;7.024;2023-06-24T10:18:35;31.25;39.69
72128;DHT22;60000;51.030;7.024;2023-06-24T10:21:01;31.65;40.96
72128;DHT22;60000;51.030;7.024;2023-06-24T10:26:23;31.76;38.83
72128;DHT22;60000;51.030;7.024;2023-06-24T10:34:31;31.90;36.63
72128;DHT22;60000;51.030;7.024;2023-06-24T10:37:19;32.14;38.64
72128;DHT22;60000;51.030;7.024;2023-06-24T10:44:58;32.62;35.49
72128;DHT22;60000;51.030;7.024;2023-06-24T10:47:24;32.75;35.11
72128;DHT22;60000;51.030;7.024;2023-06-24T10:49:50;32.76;33.65
72128;DHT22;60000;51.030;7.024;2023-06-24T10:52:18;32.68;33.49
72128;DHT22;60000;51.030;7.024;2023-06-24T10:54:44;32.71;32.17
72128;DHT22;60000;51.030;7.024;2023-06-24T10:57:11;32.44;32.49
72128;DHT22;60000;51.030;7.024;2023-06-24T11:02:08;32.58;33.81
72128;DHT22;60000;51.030;7.024;2023-06-24T11:04:51;32.74;34.71
72128;DHT22;60000;51.030;7.024;2023-06-24T11:07:20;32.88;33.24
72128;DHT22;60000;51.030;7.024;2023-06-24T11:10:12;33.08;32.00
72128;DHT22;60000;51.030;7.024;2023-06-24T11:12:38;33.34;32.56
72128;DHT22;60000;51.030;7.024;2023-06-24T11:15:05;33.27;30.79
72128;DHT22;60000;51.030;7.024;2023-06-24T11:17:34;33.08;30.93
72128;DHT22;60000;51.030;7.024;2023-06-24T11:20:01;33.19;32.70
72128;DHT22;60000;51.030;7.024;2023-06-24T11:22:27;33.25;30.57
72128;DHT22;60000;51.030;7.024;2023-06-24T11:24:53;33.47;31.50
72128;DHT22;60000;51.030;7.024;2023-06-24T11:27:26;33.73;31.12
72128;DHT22;60000;51.030;7.024;2023-06-24T11:29:53;34.19;31.25
72128;DHT22;60000;51.030;7.024;2023-06-24T11:32:19;34.26;29.53
72128;DHT22;60000;51.030;7.024;2023-06-24T11:34:44;34.22;29.15
72128;DHT22;60000;51.030;7.024;2023-06-24T11:37:17;34.01;28.92
72128;DHT22;60000;51.030;7.024;2023-06-24T11:39:44;33.67;30.38
72128;DHT22;60000;51.030;7.024;2023-06-24T11:42:10;33.50;28.51
72128;DHT22;60000;51.030;7.024;2023-06-24T11:44:41;33.33;29.67
72128;DHT22;60000;51.030;7.024;2023-06-24T11:47:08;33.47;28.86
72128;DHT22;60000;51.030;7.024;2023-06-24T11:49:50;33.66;30.11
72128;DHT22;60000;51.030;7.024;2023-06-24T11:52:16;33.63;28.11
72128;DHT22;60000;51.030;7.024;2023-06-24T11:54:41;33.66;28.41
72128;DHT22;60000;51.030;7.024;2023-06-24T11:57:08;33.88;29.91
72128;DHT22;60000;51.030;7.024;2023-06-24T11:59:36;33.91;27.77
72128;DHT22;60000;51.030;7.024;2023-06-24T12:02:01;33.54;26.81
72128;DHT22;60000;51.030;7.024;2023-06-24T12:04:30;33.46;27.64
72128;DHT22;60000;51.030;7.024;2023-06-24T12:06:55;33.76;29.90
72128;DHT22;60000;51.030;7.024;2023-06-24T12:09:21;33.85;27.93
72128;DHT22;60000;51.030;7.024;2023-06-24T12:11:46;33.56;26.62
72128;DHT22;60000;51.030;7.024;2023-06-24T12:14:12;33.42;28.63
72128;DHT22;60000;51.030;7.024;2023-06-24T12:16:40;33.47;29.10
72128;DHT22;60000;51.030;7.024;2023-06-24T12:19:07;33.49;28.12
72128;DHT22;60000;51.030;7.024;2023-06-24T12:21:32;32.92;27.79
72128;DHT22;60000;51.030;7.024;2023-06-24T12:23:58;33.02;28.68
72128;DHT22;60000;51.030;7.024;2023-06-24T12:26:23;33.27;30.66
72128;DHT22;60000;51.030;7.024;2023-06-24T12:28:49;33.51;29.65
72128;DHT22;60000;51.030;7.024;2023-06-24T12:31:14;33.54;28.60
72128;DHT22;60000;51.030;7.024;2023-06-24T12:33:40;33.74;29.64
72128;DHT22;60000;51.030;7.024;2023-06-24T12:36:05;33.82;29.11
72128;DHT22;60000;51.030;7.024;2023-06-24T12:38:30;34.04;29.14
72128;DHT22;60000;51.030;7.024;2023-06-24T12:40:57;34.16;29.85
72128;DHT22;60000;51.030;7.024;2023-06-24T12:43:22;33.85;28.16
72128;DHT22;60000;51.030;7.024;2023-06-24T12:45:47;33.67;29.01
72128;DHT22;60000;51.030;7.024;2023-06-24T12:48:13;33.63;28.94
72128;DHT22;60000;51.030;7.024;2023-06-24T12:50:39;33.68;28.87
72128;DHT22;60000;51.030;7.024;2023-06-24T12:53:04;33.74;29.89
72128;DHT22;60000;51.030;7.024;2023-06-24T12:55:30;33.51;29.82
72128;DHT22;60000;51.030;7.024;2023-06-24T12:57:55;33.47;30.23
72128;DHT22;60000;51.030;7.024;2023-06-24T13:00:21;33.27;30.62
72128;DHT22;60000;51.030;7.024;2023-06-24T13:02:47;33.25;31.21
72128;DHT22;60000;51.030;7.024;2023-06-24T13:05:13;32.98;30.76
72128;DHT22;60000;51.030;7.024;2023-06-24T13:07:38;32.89;30.49
72128;DHT22;60000;51.030;7.024;2023-06-24T13:10:04;32.99;31.53
72128;DHT22;60000;51.030;7.024;2023-06-24T13:12:32;33.10;31.52
72128;DHT22;60000;51.030;7.024;2023-06-24T13:14:57;33.03;30.63
72128;DHT22;60000;51.030;7.024;2023-06-24T13:17:23;32.88;31.29
72128;DHT22;60000;51.030;7.024;2023-06-24T13:19:48;32.79;32.26
72128;DHT22;60000;51.030;7.024;2023-06-24T13:22:14;32.75;32.67
72128;DHT22;60000;51.030;7.024;2023-06-24T13:24:39;32.82;31.16
72128;DHT22;60000;51.030;7.024;2023-06-24T13:27:05;32.52;30.90
72128;DHT22;60000;51.030;7.024;2023-06-24T13:29:30;32.51;32.07
72128;DHT22;60000;51.030;7.024;2023-06-24T13:31:56;32.25;30.72
72128;DHT22;60000;51.030;7.024;2023-06-24T13:34:22;32.24;31.39
72128;DHT22;60000;51.030;7.024;2023-06-24T13:36:47;32.30;32.71
72128;DHT22;60000;51.030;7.024;2023-06-24T13:39:13;32.34;32.67
72128;DHT22;60000;51.030;7.024;2023-06-24T13:41:38;32.23;32.38
72128;DHT22;60000;51.030;7.024;2023-06-24T13:44:04;32.20;31.99
72128;DHT22;60000;51.030;7.024;2023-06-24T13:46:30;32.13;31.60
72128;DHT22;60000;51.030;7.024;2023-06-24T13:48:57;31.94;30.33
72128;DHT22;60000;51.030;7.024;2023-06-24T13:51:23;31.84;30.36
72128;DHT22;60000;51.030;7.024;2023-06-24T13:53:50;31.87;31.63
72128;DHT22;60000;51.030;7.024;2023-06-24T13:56:20;31.69;30.21
72128;DHT22;60000;51.030;7.024;2023-06-24T13:58:46;31.72;30.13
72128;DHT22;60000;51.030;7.024;2023-06-24T14:01:12;31.77;30.95
72128;DHT22;60000;51.030;7.024;2023-06-24T14:03:38;31.87;30.38
72128;DHT22;60000;51.030;7.024;2023-06-24T14:06:04;31.87;30.11
72128;DHT22;60000;51.030;7.024;2023-06-24T14:08:30;31.93;29.89
72128;DHT22;60000;51.030;7.024;2023-06-24T14:10:58;31.93;30.82
72128;DHT22;60000;51.030;7.024;2023-06-24T14:13:24;32.09;30.63
72128;DHT22;60000;51.030;7.024;2023-06-24T14:15:49;32.00;28.49
72128;DHT22;60000;51.030;7.024;2023-06-24T14:18:15;31.90;28.20
72128;DHT22;60000;51.030;7.024;2023-06-24T14:20:41;31.87;28.34
72128;DHT22;60000;51.030;7.024;2023-06-24T14:23:07;31.80;28.82
72128;DHT22;60000;51.030;7.024;2023-06-24T14:25:32;31.77;29.10
72128;DHT22;60000;51.030;7.024;2023-06-24T14:27:57;31.66;29.19
72128;DHT22;60000;51.030;7.024;2023-06-24T14:30:23;31.70;30.44
72128;DHT22;60000;51.030;7.024;2023-06-24T14:32:48;31.67;29.68
72128;DHT22;60000;51.030;7.024;2023-06-24T14:35:13;31.65;29.60
72128;DHT22;60000;51.030;7.024;2023-06-24T14:37:39;31.72;30.31
72128;DHT22;60000;51.030;7.024;2023-06-24T14:40:05;31.73;30.50
72128;DHT22;60000;51.030;7.024;2023-06-24T14:42:30;31.80;28.96
72128;DHT22;60000;51.030;7.024;2023-06-24T14:44:56;31.70;27.45
72128;DHT22;60000;51.030;7.024;2023-06-24T14:47:22;31.60;28.27
72128;DHT22;60000;51.030;7.024;2023-06-24T14:49:47;31.59;28.51
72128;DHT22;60000;51.030;7.024;2023-06-24T14:52:13;31.54;28.64
72128;DHT22;60000;51.030;7.024;2023-06-24T14:54:38;31.53;28.10
72128;DHT22;60000;51.030;7.024;2023-06-24T14:57:03;31.70;28.38
72128;DHT22;60000;51.030;7.024;2023-06-24T14:59:29;31.66;27.49
72128;DHT22;60000;51.030;7.024;2023-06-24T15:01:54;31.74;28.16
72128;DHT22;60000;51.030;7.024;2023-06-24T15:04:19;31.86;28.70
72128;DHT22;60000;51.030;7.024;2023-06-24T15:06:45;31.87;27.00
72128;DHT22;60000;51.030;7.024;2023-06-24T15:09:10;31.89;27.50
72128;DHT22;60000;51.030;7.024;2023-06-24T15:11:36;32.00;27.42
72128;DHT22;60000;51.030;7.024;2023-06-24T15:14:01;32.14;27.08
72128;DHT22;60000;51.030;7.024;2023-06-24T15:16:26;31.93;24.75
72128;DHT22;60000;51.030;7.024;2023-06-24T15:18:52;31.93;25.59
72128;DHT22;60000;51.030;7.024;2023-06-24T15:21:17;31.98;25.21
72128;DHT22;60000;51.030;7.024;2023-06-24T15:23:42;32.01;26.13
72128;DHT22;60000;51.030;7.024;2023-06-24T15:26:08;32.01;26.65
72128;DHT22;60000;51.030;7.024;2023-06-24T15:28:33;31.89;25.94
72128;DHT22;60000;51.030;7.024;2023-06-24T15:31:01;31.87;26.25
72128;DHT22;60000;51.030;7.024;2023-06-24T15:33:27;31.94;25.36
72128;DHT22;60000;51.030;7.024;2023-06-24T15:35:52;31.83;24.12
72128;DHT22;60000;51.030;7.024;2023-06-24T15:38:18;31.87;23.16
72128;DHT22;60000;51.030;7.024;2023-06-24T15:40:43;31.89;24.19
72128;DHT22;60000;51.030;7.024;2023-06-24T15:43:09;31.93;26.45
72128;DHT22;60000;51.030;7.024;2023-06-24T15:45:35;31.87;26.11
72128;DHT22;60000;51.030;7.024;2023-06-24T15:48:02;31.82;26.48
72128;DHT22;60000;51.030;7.024;2023-06-24T15:50:28;31.80;26.62
72128;DHT22;60000;51.030;7.024;2023-06-24T15:52:53;31.69;27.23